Time;durP1;ratioP1;P1;durP2;ratioP2;P2;SDS_P1;SDS_P2;PMS_P1;PMS_P2;Temp;Humidity;BMP_temperature;BMP_pressure;BME280_temperature;BME280_humidity;BME280_pressure;Samples;Min_cycle;Max_cycle;Signal;HPM_P1;HPM_P2
2022/06/10 00:00:50;;;;;;;4.50;4.07;;;;;;;21.20;56.22;97951.31;4994345;28;20054;-74
2022/06/10 00:03:16;;;;;;;8.55;4.07;;;;;;;21.16;56.22;97936.84;4994253;28;20466;-74
2022/06/10 00:05:43;;;;;;;6.32;3.95;;;;;;;21.14;56.08;97926.44;4994233;28;20101;-74
2022/06/10 00:08:11;;;;;;;8.13;4.18;;;;;;;21.17;56.20;97925.19;4994239;28;20509;-74
2022/06/10 00:10:36;;;;;;;6.40;4.00;;;;;;;21.13;56.27;97931.94;4993978;28;20049;-75
2022/06/10 00:13:02;;;;;;;4.80;3.95;;;;;;;21.15;56.18;97935.22;4978024;28;20058;-74
2022/06/10 00:15:28;;;;;;;4.18;3.65;;;;;;;21.13;56.25;97930.09;4994908;28;20026;-74
2022/06/10 00:17:54;;;;;;;5.18;3.97;;;;;;;21.12;56.25;97925.00;4994808;28;20067;-74
2022/06/10 00:20:22;;;;;;;4.78;4.10;;;;;;;21.13;56.04;97929.31;4995118;28;20022;-74
2022/06/10 00:22:48;;;;;;;4.60;4.20;;;;;;;21.10;56.08;97925.19;4977596;28;20505;-74
2022/06/10 00:25:13;;;;;;;4.75;4.30;;;;;;;21.13;56.25;97926.66;4993816;28;20026;-75
2022/06/10 00:27:39;;;;;;;6.80;4.50;;;;;;;21.09;56.22;97914.78;4994860;28;20117;-74
2022/06/10 00:30:06;;;;;;;8.57;4.32;;;;;;;21.09;56.13;97910.28;4993750;28;20026;-74
2022/06/10 00:32:31;;;;;;;6.65;4.18;;;;;;;21.11;56.28;97915.41;4994004;28;20026;-74
2022/06/10 00:34:57;;;;;;;6.68;4.22;;;;;;;21.10;56.26;97916.44;4994922;28;20034;-83
2022/06/10 00:37:22;;;;;;;5.00;4.40;;;;;;;21.10;56.27;97919.09;4993928;28;20066;-77
2022/06/10 00:39:48;;;;;;;5.10;4.60;;;;;;;21.07;56.15;97915.00;4993494;28;20022;-77
2022/06/10 00:42:13;;;;;;;5.63;4.68;;;;;;;21.09;56.26;97914.78;4993924;28;20493;-77
2022/06/10 00:44:47;;;;;;;11.07;4.68;;;;;;;21.07;56.16;97916.84;4977664;28;20478;-77
2022/06/10 00:47:19;;;;;;;5.53;4.50;;;;;;;21.05;56.15;97911.75;4977640;28;20027;-77
2022/06/10 00:49:59;;;;;;;9.77;4.95;;;;;;;21.03;56.24;97905.00;4993707;28;20034;-77
2022/06/10 00:52:35;;;;;;;4.88;4.38;;;;;;;21.01;56.06;97902.53;4994130;28;20039;-77
2022/06/10 00:55:00;;;;;;;4.90;4.38;;;;;;;21.00;56.15;97906.25;4977429;28;20505;-77
2022/06/10 00:57:29;;;;;;;6.05;4.72;;;;;;;21.03;56.21;97905.84;4995004;28;20073;-77
2022/06/10 00:59:59;;;;;;;5.35;4.75;;;;;;;21.02;56.26;97904.19;4993197;28;20030;-77
2022/06/10 01:02:27;;;;;;;4.85;4.30;;;;;;;21.01;56.29;97907.84;4994427;28;20038;-77
2022/06/10 01:04:57;;;;;;;5.13;4.63;;;;;;;20.97;56.15;97904.00;4994457;28;20035;-77
2022/06/10 01:07:26;;;;;;;7.80;4.90;;;;;;;21.00;56.26;97910.72;4994776;28;20064;-77
2022/06/10 01:09:52;;;;;;;4.70;4.30;;;;;;;21.01;56.33;97915.00;4993267;28;20029;-77
2022/06/10 01:12:36;;;;;;;5.30;4.80;;;;;;;21.01;56.32;97915.81;4993240;28;20030;-77
2022/06/10 01:15:07;;;;;;;5.00;4.45;;;;;;;21.01;56.47;97917.66;4994173;28;20077;-77
2022/06/10 01:17:44;;;;;;;5.80;4.78;;;;;;;21.01;56.44;97913.16;4992484;28;20054;-77
2022/06/10 01:20:17;;;;;;;7.78;4.45;;;;;;;20.98;56.39;97902.94;4994512;28;20037;-77
2022/06/10 01:23:16;;;;;;;5.90;4.68;;;;;;;21.02;56.35;97904.19;4993312;28;20092;-77
2022/06/10 01:25:47;;;;;;;5.80;4.55;;;;;;;21.04;56.20;97911.94;4993010;28;20109;-77
2022/06/10 01:28:31;;;;;;;9.18;4.75;;;;;;;21.04;56.48;97907.44;4992382;28;20162;-77
2022/06/10 01:31:06;;;;;;;6.70;4.38;;;;;;;21.05;56.47;97914.41;4993804;28;20145;-78
2022/06/10 01:33:49;;;;;;;12.00;5.20;;;;;;;21.05;56.52;97909.09;4993841;28;20031;-77
2022/06/10 01:36:42;;;;;;;7.57;4.28;;;;;;;21.05;56.38;97908.28;4993987;28;20034;-77
2022/06/10 01:39:22;;;;;;;4.90;4.45;;;;;;;21.02;56.45;97909.50;4993764;28;20409;-77
2022/06/10 01:41:52;;;;;;;5.93;4.07;;;;;;;21.05;56.57;97911.75;4992369;28;20026;-78
2022/06/10 01:44:32;;;;;;;7.45;4.60;;;;;;;21.06;56.51;97910.72;4993449;28;20037;-77
2022/06/10 01:47:13;;;;;;;7.50;4.60;;;;;;;21.05;56.43;97913.59;4994263;28;20085;-78
2022/06/10 01:50:04;;;;;;;5.40;4.88;;;;;;;21.07;56.43;97933.56;4992511;28;20165;-78
2022/06/10 01:52:58;;;;;;;7.40;4.57;;;;;;;21.06;56.55;97939.91;4992470;28;20117;-78
2022/06/10 01:55:33;;;;;;;5.68;4.50;;;;;;;21.06;56.51;97931.97;4972317;28;20043;-78
2022/06/10 01:58:14;;;;;;;6.22;4.70;;;;;;;21.10;56.76;97935.81;4939899;28;20044;-77
2022/06/10 02:00:43;;;;;;;5.50;4.55;;;;;;;21.09;56.67;97928.06;4940837;28;20533;-77
2022/06/10 02:03:16;;;;;;;;;;;;;;;21.11;56.71;97933.97;4924511;28;20121;-77
2022/06/10 02:05:45;;;;;;;4.88;4.38;;;;;;;21.08;56.70;97935.22;4939664;28;19910;-77
2022/06/10 02:08:18;;;;;;;8.18;4.55;;;;;;;21.09;56.76;97942.13;4924265;29;20043;-78
2022/06/10 02:10:48;;;;;;;7.35;4.70;;;;;;;21.10;56.78;97946.44;4918662;29;20035;-78
2022/06/10 02:13:17;;;;;;;4.75;4.25;;;;;;;21.12;56.70;97947.03;4913625;29;20439;-78
2022/06/10 02:15:53;;;;;;;7.05;4.03;;;;;;;21.11;56.80;97936.63;4918766;28;20101;-78
2022/06/10 02:18:33;;;;;;;7.03;4.70;;;;;;;21.16;56.79;97947.47;4928998;28;20038;-78
2022/06/10 02:21:03;;;;;;;5.30;4.65;;;;;;;21.16;56.75;97950.13;4971636;28;20599;-78
2022/06/10 02:23:33;;;;;;;4.72;4.32;;;;;;;21.14;56.61;97947.66;4938534;28;20505;-78
2022/06/10 02:25:59;;;;;;;4.90;4.40;;;;;;;21.13;56.76;97948.69;4954813;28;20035;-77
2022/06/10 02:28:45;;;;;;;4.85;4.30;;;;;;;21.18;56.62;97949.91;4939114;28;20513;-77
2022/06/10 02:31:22;;;;;;;7.55;4.70;;;;;;;21.18;56.66;97950.72;4939116;28;20097;-77
2022/06/10 02:33:50;;;;;;;5.00;4.50;;;;;;;21.16;56.82;97955.44;4991929;28;20544;-77
2022/06/10 02:37:06;;;;;;;6.13;4.53;;;;;;;21.19;56.86;97962.97;4975979;28;20026;-79
2022/06/10 02:39:45;;;;;;;4.65;4.25;;;;;;;21.17;56.80;97959.69;4971411;28;20069;-77
2022/06/10 02:42:31;;;;;;;6.97;4.43;;;;;;;21.18;56.69;97971.16;4940148;28;20031;-79
2022/06/10 02:45:08;;;;;;;5.90;4.45;;;;;;;21.19;56.93;97970.09;4941357;28;20051;-77
2022/06/10 02:48:15;;;;;;;7.40;4.40;;;;;;;21.19;56.94;97970.09;4955322;28;20050;-77
2022/06/10 02:50:40;;;;;;;5.23;4.50;;;;;;;21.18;57.06;97969.31;4914061;29;20040;-79
2022/06/10 02:53:06;;;;;;;5.32;4.38;;;;;;;21.19;57.27;97970.09;4914385;29;20043;-77
2022/06/10 02:55:32;;;;;;;5.53;4.93;;;;;;;21.21;56.83;97973.41;4914349;29;20083;-77
2022/06/10 03:03:39;;;;;;;7.32;4.57;;;;;;;21.22;57.20;97978.50;4914277;29;20107;-77
2022/06/10 03:06:25;;;;;;;5.28;4.40;;;;;;;21.20;57.24;97966.44;4914028;29;20036;-78
2022/06/10 03:09:23;;;;;;;6.05;4.13;;;;;;;21.19;57.31;97967.44;4911916;29;20083;-77
2022/06/10 03:12:13;;;;;;;6.28;4.80;;;;;;;21.25;57.04;97971.94;4876416;29;20052;-77
2022/06/10 03:15:17;;;;;;;5.25;4.55;;;;;;;21.25;57.19;97961.34;4876322;29;20552;-77
2022/06/10 03:17:53;;;;;;;6.55;4.63;;;;;;;21.26;57.39;97952.34;4875797;29;20116;-77
2022/06/10 03:20:45;;;;;;;7.50;4.78;;;;;;;21.25;57.31;97948.06;4865318;29;20033;-77
2022/06/10 03:23:27;;;;;;;5.65;4.40;;;;;;;21.22;57.45;97951.97;4866331;29;20037;-77
2022/06/10 03:25:55;;;;;;;5.15;4.65;;;;;;;21.24;57.26;97970.34;4850488;29;20081;-79
2022/06/10 03:28:25;;;;;;;5.93;4.63;;;;;;;21.26;57.24;97973.59;4862647;29;20045;-77
2022/06/10 03:31:06;;;;;;;5.05;4.55;;;;;;;21.29;57.29;97984.59;4883287;29;20032;-77
2022/06/10 03:33:43;;;;;;;5.78;4.38;;;;;;;21.30;57.11;97983.59;4898362;29;20165;-77
2022/06/10 03:36:16;;;;;;;4.72;4.32;;;;;;;21.30;57.12;97982.75;4868624;29;20037;-77
2022/06/10 03:38:44;;;;;;;5.22;4.72;;;;;;;21.33;57.24;97990.31;4883015;29;20501;-80
2022/06/10 03:41:24;;;;;;;8.80;4.50;;;;;;;21.36;57.08;97999.72;4867245;29;20063;-79
2022/06/10 03:43:51;;;;;;;4.75;4.35;;;;;;;21.37;57.23;98004.03;4882275;29;20025;-79
2022/06/10 03:46:17;;;;;;;5.55;4.45;;;;;;;21.40;57.06;98003.59;4882327;29;20044;-79
2022/06/10 03:48:43;;;;;;;5.38;4.13;;;;;;;21.36;57.25;98007.69;4923085;28;20049;-79
2022/06/10 03:51:08;;;;;;;4.70;4.15;;;;;;;21.41;57.17;98023.81;4974895;28;20039;-78
2022/06/10 03:53:34;;;;;;;8.82;4.55;;;;;;;21.42;57.03;98023.59;4959110;28;20027;-79
2022/06/10 03:55:59;;;;;;;5.30;4.78;;;;;;;21.44;57.15;98034.84;4975172;28;20465;-79
2022/06/10 03:58:25;;;;;;;5.60;4.25;;;;;;;21.45;57.01;98035.66;4975171;28;20419;-79
2022/06/10 04:00:50;;;;;;;4.50;4.10;;;;;;;21.46;57.09;98038.13;4958985;28;20065;-79
2022/06/10 04:03:16;;;;;;;5.88;4.45;;;;;;;21.49;57.17;98042.22;4975377;28;20030;-78
2022/06/10 04:05:42;;;;;;;5.05;4.38;;;;;;;21.52;57.29;98043.66;4974820;28;20034;-79
2022/06/10 04:08:07;;;;;;;4.90;4.40;;;;;;;21.51;57.05;98029.56;4958715;28;20486;-80
2022/06/10 04:10:33;;;;;;;5.30;4.20;;;;;;;21.53;57.21;98027.53;4974437;28;20109;-77
2022/06/10 04:12:58;;;;;;;5.00;4.30;;;;;;;21.55;57.16;98029.97;4974611;28;20482;-73
2022/06/10 04:15:25;;;;;;;5.93;4.28;;;;;;;21.60;57.36;98036.31;4975744;28;20031;-73
2022/06/10 04:17:51;;;;;;;8.90;2.80;;;;;;;21.80;60.99;98032.81;4980997;28;20100;-74
2022/06/10 04:20:20;;;;;;;41.58;4.18;;;;;;;22.33;59.11;98035.38;4994143;28;20030;-74
2022/06/10 04:22:46;;;;;;;65.88;4.70;;;;;;;22.71;57.47;98026.63;4994074;28;20026;-81
2022/06/10 04:25:11;;;;;;;22.38;3.90;;;;;;;23.05;55.80;98031.75;4994295;28;20037;-83
2022/06/10 04:27:37;;;;;;;13.75;3.70;;;;;;;23.32;54.79;98035.06;4994099;28;20105;-85
2022/06/10 04:30:05;;;;;;;15.75;3.58;;;;;;;23.53;54.19;98041.88;4995069;28;20038;-84
2022/06/10 04:32:31;;;;;;;15.20;3.67;;;;;;;23.72;53.65;98029.41;4994058;28;20104;-73
2022/06/10 04:34:56;;;;;;;6.00;3.70;;;;;;;23.86;53.02;98024.78;4994851;28;20034;-75
2022/06/10 04:37:22;;;;;;;6.80;3.42;;;;;;;24.03;53.25;98015.16;4993827;28;20030;-75
2022/06/10 04:39:47;;;;;;;4.93;3.35;;;;;;;24.29;52.63;98023.94;4976559;28;20548;-72
2022/06/10 04:42:13;;;;;;;6.55;3.25;;;;;;;24.50;51.93;98030.66;4994492;28;20062;-79
2022/06/10 04:44:38;;;;;;;7.72;3.17;;;;;;;24.58;51.98;98032.22;4993684;28;20058;-78
2022/06/10 04:47:06;;;;;;;8.00;3.58;;;;;;;24.66;51.79;98029.25;4995152;28;20022;-78
2022/06/10 04:49:31;;;;;;;8.38;3.50;;;;;;;24.80;51.65;98024.53;4980149;28;20065;-81
2022/06/10 04:51:57;;;;;;;5.68;3.17;;;;;;;24.93;51.79;98023.53;5001300;28;20042;-76
2022/06/10 04:54:22;;;;;;;8.02;3.58;;;;;;;25.19;50.54;98033.03;4993651;28;20073;-72
2022/06/10 04:56:48;;;;;;;5.47;3.35;;;;;;;25.50;50.01;98019.63;4993294;28;20030;-80
2022/06/10 04:59:14;;;;;;;4.95;3.10;;;;;;;25.85;48.56;98016.94;4986530;28;20057;-76
2022/06/10 05:01:39;;;;;;;5.47;3.70;;;;;;;27.37;45.26;98015.88;4993527;28;20501;-80
2022/06/10 05:04:05;;;;;;;5.50;4.18;;;;;;;27.94;43.65;98015.72;4993795;28;20042;-78
2022/06/10 05:06:30;;;;;;;8.18;4.70;;;;;;;28.41;42.45;98021.66;4958878;28;20034;-79
2022/06/10 05:08:56;;;;;;;6.70;4.65;;;;;;;28.09;42.87;98015.09;4992454;28;20070;-77
2022/06/10 05:11:22;;;;;;;5.63;4.30;;;;;;;28.14;42.63;98017.03;4992644;28;20022;-79
2022/06/10 05:13:48;;;;;;;7.32;4.68;;;;;;;27.87;43.62;98020.41;4975310;28;20026;-77
2022/06/10 05:16:15;;;;;;;8.35;5.20;;;;;;;27.56;44.70;98029.84;4991073;28;20042;-76
2022/06/10 05:18:40;;;;;;;9.73;5.13;;;;;;;27.39;44.85;98014.59;4992243;28;20061;-76
2022/06/10 05:21:06;;;;;;;9.00;5.20;;;;;;;27.56;45.00;98024.50;4991063;28;20089;-76
2022/06/10 05:23:31;;;;;;;8.32;5.35;;;;;;;27.52;43.88;98029.53;4975146;28;20030;-83
2022/06/10 05:25:57;;;;;;;15.20;5.07;;;;;;;27.77;44.51;98034.47;4995256;28;20030;-78
2022/06/10 05:28:23;;;;;;;7.18;4.85;;;;;;;28.82;41.23;98038.25;4992015;28;20065;-78
2022/06/10 05:30:48;;;;;;;9.57;5.10;;;;;;;28.65;41.81;98043.69;4972730;28;20046;-85
2022/06/10 05:33:14;;;;;;;9.68;4.85;;;;;;;28.67;41.44;98045.06;4974996;28;20094;-77
2022/06/10 05:35:40;;;;;;;16.02;4.85;;;;;;;28.55;42.05;98043.56;4991549;28;20455;-79
